This is the latest recevied weather packets stored in our database for station/object KD7MPG-3. If no packets are shown the sender has not sent any weather packets the latest 10 day(s).
| Time | Temp. | Humidity | Pressure | Rain* | Wind** | Luminosity | Snow |
|---|---|---|---|---|---|---|---|
| 1787860397 | 25.56° C | 59% | 1027 hPa | 0 mm | - | - | - |
| 1787860391 | 20.56° C | 75% | 1027 hPa | 0 mm | - | - | - |
| 1787860387 | 20° C | 76% | 1027.1 hPa | 0 mm | - | - | - |
| 1787860382 | 20° C | 77% | 1027.1 hPa | 0 mm | - | - | - |
| 1787860378 | 19.44° C | 77% | 1027.2 hPa | 0 mm | - | - | - |
| 1787860373 | 19.44° C | 77% | 1027.3 hPa | 0 mm | - | - | - |
| 1787860369 | 20° C | 76% | 1027.3 hPa | 0 mm | - | - | - |
| 1787860365 | 19.44° C | 79% | 1027.3 hPa | 0 mm | - | - | - |
| 1787860359 | 19.44° C | 79% | 1027.3 hPa | 0 mm | - | - | - |
| 1787860355 | 18.89° C | 80% | 1027.4 hPa | 0 mm | - | - | - |
| 1787860350 | 18.33° C | 81% | 1027.4 hPa | 0 mm | - | - | - |
| 1787860346 | 18.33° C | 83% | 1027.4 hPa | 0 mm | - | - | - |
| 1787860341 | 17.78° C | 84% | 1027.4 hPa | 0 mm | - | - | - |
| 1787860336 | 17.22° C | 84% | 1027.5 hPa | 0 mm | - | - | - |
| 1787860331 | 16.67° C | 84% | 1027.5 hPa | 0 mm | - | - | - |
| 1787860327 | 16.67° C | 84% | 1027.6 hPa | 0 mm | - | - | - |
| 1787860323 | 16.67° C | 84% | 1027.5 hPa | 0 mm | - | - | - |
| 1787860318 | 16.67° C | 85% | 1027.6 hPa | 0 mm | - | - | - |
| 1787860314 | 16.67° C | 85% | 1027.6 hPa | 0 mm | - | - | - |
| 1787860228 | 25.56° C | 59% | 1027.1 hPa | 0 mm | - | - | - |
| 1787860159 | 16.11° C | 85% | 1027.6 hPa | 0 mm | - | - | - |
| 1787860153 | 16.11° C | 85% | 1027.6 hPa | 0 mm | - | - | - |
| 1787860149 | 16.11° C | 86% | 1027.6 hPa | 0 mm | - | - | - |
| 1787860145 | 25° C | 59% | 1027.1 hPa | 0 mm | - | - | - |
| 1787860140 | 25° C | 59% | 1027.2 hPa | 0 mm | - | - | - |
* Rain latest hour (hover to see other rain measurements)
** Current wind speed in m/s (hover to see current wind gust speed)